sensor_id;sensor_type;location;lat;lon;timestamp;pressure;altitude;pressure_sealevel;temperature;humidity
35908;BME280;22003;50.320;8.054;2023-03-09T05:00:34;97413.59;;;7.53;100.00
35908;BME280;22003;50.320;8.054;2023-03-09T05:02:59;97417.22;;;7.60;100.00
35908;BME280;22003;50.320;8.054;2023-03-09T05:05:25;97424.03;;;7.71;100.00
35908;BME280;22003;50.320;8.054;2023-03-09T05:07:50;97418.81;;;7.45;100.00
35908;BME280;22003;50.320;8.054;2023-03-09T05:10:16;97422.69;;;7.32;100.00
35908;BME280;22003;50.320;8.054;2023-03-09T05:12:41;97420.84;;;7.59;100.00
35908;BME280;22003;50.320;8.054;2023-03-09T05:15:07;97407.50;;;7.26;100.00
35908;BME280;22003;50.320;8.054;2023-03-09T05:17:33;97438.13;;;7.27;100.00
35908;BME280;22003;50.320;8.054;2023-03-09T05:19:58;97448.34;;;7.56;100.00
35908;BME280;22003;50.320;8.054;2023-03-09T05:22:23;97456.25;;;7.56;100.00
35908;BME280;22003;50.320;8.054;2023-03-09T05:24:49;97450.78;;;7.24;100.00
35908;BME280;22003;50.320;8.054;2023-03-09T05:27:14;97420.06;;;7.32;100.00
35908;BME280;22003;50.320;8.054;2023-03-09T05:29:40;97435.47;;;7.45;100.00
35908;BME280;22003;50.320;8.054;2023-03-09T05:32:05;97454.47;;;7.65;100.00
35908;BME280;22003;50.320;8.054;2023-03-09T05:34:32;97470.16;;;7.40;100.00
35908;BME280;22003;50.320;8.054;2023-03-09T05:36:57;97468.13;;;7.60;100.00
35908;BME280;22003;50.320;8.054;2023-03-09T05:39:23;97469.81;;;7.61;100.00
35908;BME280;22003;50.320;8.054;2023-03-09T05:41:48;97470.88;;;7.51;100.00
35908;BME280;22003;50.320;8.054;2023-03-09T05:44:13;97430.03;;;7.47;100.00
35908;BME280;22003;50.320;8.054;2023-03-09T05:46:39;97434.81;;;7.51;100.00
35908;BME280;22003;50.320;8.054;2023-03-09T05:49:04;97493.72;;;7.68;100.00
35908;BME280;22003;50.320;8.054;2023-03-09T05:51:30;97461.75;;;7.37;100.00
35908;BME280;22003;50.320;8.054;2023-03-09T05:53:55;97490.22;;;7.33;100.00
35908;BME280;22003;50.320;8.054;2023-03-09T05:56:20;97503.34;;;7.51;100.00
35908;BME280;22003;50.320;8.054;2023-03-09T05:58:47;97505.13;;;7.51;100.00
35908;BME280;22003;50.320;8.054;2023-03-09T06:01:17;97501.16;;;7.73;100.00
35908;BME280;22003;50.320;8.054;2023-03-09T06:03:42;97509.72;;;7.75;100.00
35908;BME280;22003;50.320;8.054;2023-03-09T06:06:08;97506.38;;;7.64;100.00
35908;BME280;22003;50.320;8.054;2023-03-09T06:08:34;97522.19;;;7.64;100.00
35908;BME280;22003;50.320;8.054;2023-03-09T06:10:59;97513.84;;;7.77;100.00
35908;BME280;22003;50.320;8.054;2023-03-09T06:13:25;97486.16;;;7.47;100.00
35908;BME280;22003;50.320;8.054;2023-03-09T06:15:51;97511.63;;;7.64;100.00
35908;BME280;22003;50.320;8.054;2023-03-09T06:18:16;97521.50;;;7.62;100.00
35908;BME280;22003;50.320;8.054;2023-03-09T06:20:43;97519.34;;;7.58;100.00
35908;BME280;22003;50.320;8.054;2023-03-09T06:23:08;97477.75;;;7.44;100.00
35908;BME280;22003;50.320;8.054;2023-03-09T06:25:33;97532.16;;;7.79;100.00
35908;BME280;22003;50.320;8.054;2023-03-09T06:27:59;97530.34;;;7.79;100.00
35908;BME280;22003;50.320;8.054;2023-03-09T06:30:24;97539.88;;;7.72;100.00
35908;BME280;22003;50.320;8.054;2023-03-09T06:32:51;97540.34;;;8.02;100.00
35908;BME280;22003;50.320;8.054;2023-03-09T06:35:18;97550.38;;;7.98;100.00
35908;BME280;22003;50.320;8.054;2023-03-09T06:37:43;97495.47;;;7.59;100.00
35908;BME280;22003;50.320;8.054;2023-03-09T06:40:09;97560.38;;;7.86;100.00
35908;BME280;22003;50.320;8.054;2023-03-09T06:42:37;97558.88;;;7.84;100.00
35908;BME280;22003;50.320;8.054;2023-03-09T06:45:03;97552.34;;;7.70;100.00
35908;BME280;22003;50.320;8.054;2023-03-09T06:47:28;97556.44;;;7.64;100.00
35908;BME280;22003;50.320;8.054;2023-03-09T06:49:53;97512.09;;;7.60;100.00
35908;BME280;22003;50.320;8.054;2023-03-09T06:52:19;97564.03;;;7.93;100.00
35908;BME280;22003;50.320;8.054;2023-03-09T06:54:45;97555.25;;;7.85;100.00
35908;BME280;22003;50.320;8.054;2023-03-09T06:57:10;97555.53;;;8.08;100.00
35908;BME280;22003;50.320;8.054;2023-03-09T06:59:35;97562.16;;;8.12;100.00
35908;BME280;22003;50.320;8.054;2023-03-09T07:02:01;97539.06;;;8.06;100.00
35908;BME280;22003;50.320;8.054;2023-03-09T07:04:26;97560.53;;;8.19;100.00
35908;BME280;22003;50.320;8.054;2023-03-09T07:06:51;97507.72;;;8.03;100.00
35908;BME280;22003;50.320;8.054;2023-03-09T07:09:17;97566.44;;;8.39;100.00
35908;BME280;22003;50.320;8.054;2023-03-09T07:11:43;97588.75;;;8.53;100.00
35908;BME280;22003;50.320;8.054;2023-03-09T07:14:08;97596.13;;;8.49;100.00
35908;BME280;22003;50.320;8.054;2023-03-09T07:16:34;97580.63;;;8.46;100.00
35908;BME280;22003;50.320;8.054;2023-03-09T07:18:59;97418.19;;;7.51;100.00
35908;BME280;22003;50.320;8.054;2023-03-09T07:21:24;97587.94;;;8.60;100.00
35908;BME280;22003;50.320;8.054;2023-03-09T07:23:50;97601.16;;;8.68;100.00
35908;BME280;22003;50.320;8.054;2023-03-09T07:26:15;97547.81;;;8.40;100.00
35908;BME280;22003;50.320;8.054;2023-03-09T07:28:40;97609.09;;;8.77;100.00
35908;BME280;22003;50.320;8.054;2023-03-09T07:31:10;97592.25;;;8.61;100.00
35908;BME280;22003;50.320;8.054;2023-03-09T07:33:36;97628.81;;;8.98;100.00
35908;BME280;22003;50.320;8.054;2023-03-09T07:36:03;97637.06;;;8.95;100.00
35908;BME280;22003;50.320;8.054;2023-03-09T07:38:29;97645.00;;;9.04;100.00
35908;BME280;22003;50.320;8.054;2023-03-09T07:40:57;97647.63;;;8.95;100.00
35908;BME280;22003;50.320;8.054;2023-03-09T07:43:22;97651.59;;;8.99;100.00
35908;BME280;22003;50.320;8.054;2023-03-09T07:45:47;97656.56;;;9.03;100.00
35908;BME280;22003;50.320;8.054;2023-03-09T07:48:12;97658.88;;;9.06;100.00
35908;BME280;22003;50.320;8.054;2023-03-09T07:50:39;97665.13;;;9.05;100.00
35908;BME280;22003;50.320;8.054;2023-03-09T07:53:04;97661.06;;;9.18;100.00
35908;BME280;22003;50.320;8.054;2023-03-09T07:55:30;97662.59;;;9.45;100.00
35908;BME280;22003;50.320;8.054;2023-03-09T07:57:58;97677.63;;;9.45;100.00
35908;BME280;22003;50.320;8.054;2023-03-09T08:00:23;97668.34;;;9.33;100.00
35908;BME280;22003;50.320;8.054;2023-03-09T08:02:49;97687.69;;;9.33;100.00
35908;BME280;22003;50.320;8.054;2023-03-09T08:05:14;97684.72;;;9.36;100.00
35908;BME280;22003;50.320;8.054;2023-03-09T08:07:40;97685.38;;;9.46;100.00
35908;BME280;22003;50.320;8.054;2023-03-09T08:10:12;97687.88;;;9.64;100.00
35908;BME280;22003;50.320;8.054;2023-03-09T08:12:40;97647.06;;;9.42;100.00
35908;BME280;22003;50.320;8.054;2023-03-09T08:15:05;97701.13;;;9.97;100.00
35908;BME280;22003;50.320;8.054;2023-03-09T08:17:31;97705.25;;;9.91;100.00
35908;BME280;22003;50.320;8.054;2023-03-09T08:19:56;97659.94;;;9.45;100.00
35908;BME280;22003;50.320;8.054;2023-03-09T08:22:21;97694.50;;;9.68;100.00
35908;BME280;22003;50.320;8.054;2023-03-09T08:24:47;97653.97;;;9.43;100.00
35908;BME280;22003;50.320;8.054;2023-03-09T08:27:12;97706.56;;;9.71;100.00
35908;BME280;22003;50.320;8.054;2023-03-09T08:29:38;97691.31;;;9.40;100.00
35908;BME280;22003;50.320;8.054;2023-03-09T08:32:07;97690.94;;;9.27;100.00
35908;BME280;22003;50.320;8.054;2023-03-09T08:34:32;97677.88;;;9.09;100.00
35908;BME280;22003;50.320;8.054;2023-03-09T08:36:58;97718.44;;;9.59;100.00
35908;BME280;22003;50.320;8.054;2023-03-09T08:39:23;97728.84;;;9.52;100.00
35908;BME280;22003;50.320;8.054;2023-03-09T08:41:48;97734.13;;;9.44;100.00
35908;BME280;22003;50.320;8.054;2023-03-09T08:44:13;97735.16;;;9.67;100.00
35908;BME280;22003;50.320;8.054;2023-03-09T08:46:39;97740.28;;;9.69;100.00
35908;BME280;22003;50.320;8.054;2023-03-09T08:49:04;97673.66;;;9.41;100.00
35908;BME280;22003;50.320;8.054;2023-03-09T08:51:29;97736.16;;;9.83;100.00
35908;BME280;22003;50.320;8.054;2023-03-09T08:53:54;97691.69;;;9.70;100.00
35908;BME280;22003;50.320;8.054;2023-03-09T08:56:20;97686.56;;;9.68;100.00
35908;BME280;22003;50.320;8.054;2023-03-09T08:58:46;97755.50;;;9.91;100.00
35908;BME280;22003;50.320;8.054;2023-03-09T09:01:12;97752.53;;;10.02;100.00
35908;BME280;22003;50.320;8.054;2023-03-09T09:03:37;97762.50;;;10.33;100.00
35908;BME280;22003;50.320;8.054;2023-03-09T09:06:09;97772.72;;;10.52;98.52
35908;BME280;22003;50.320;8.054;2023-03-09T09:08:35;97771.34;;;10.89;97.31
35908;BME280;22003;50.320;8.054;2023-03-09T09:11:09;97766.06;;;10.89;95.77
35908;BME280;22003;50.320;8.054;2023-03-09T09:13:35;97762.44;;;10.74;96.73
35908;BME280;22003;50.320;8.054;2023-03-09T09:16:02;97764.38;;;10.88;96.67
35908;BME280;22003;50.320;8.054;2023-03-09T09:18:28;97784.50;;;11.22;95.50
35908;BME280;22003;50.320;8.054;2023-03-09T09:20:54;97785.56;;;10.88;95.27
35908;BME280;22003;50.320;8.054;2023-03-09T09:23:19;97789.16;;;11.12;98.18
35908;BME280;22003;50.320;8.054;2023-03-09T09:25:44;97795.47;;;11.02;96.65
35908;BME280;22003;50.320;8.054;2023-03-09T09:28:09;97783.91;;;10.95;95.67
35908;BME280;22003;50.320;8.054;2023-03-09T09:30:35;97755.84;;;10.53;96.36
35908;BME280;22003;50.320;8.054;2023-03-09T09:33:02;97797.03;;;10.89;97.63
35908;BME280;22003;50.320;8.054;2023-03-09T09:35:30;97813.13;;;11.26;95.87
35908;BME280;22003;50.320;8.054;2023-03-09T09:37:55;97805.47;;;11.40;94.97
35908;BME280;22003;50.320;8.054;2023-03-09T09:40:22;97808.81;;;11.64;92.76
35908;BME280;22003;50.320;8.054;2023-03-09T09:42:48;97749.16;;;11.29;92.03
35908;BME280;22003;50.320;8.054;2023-03-09T09:45:32;97826.47;;;11.49;92.67
35908;BME280;22003;50.320;8.054;2023-03-09T09:48:02;97831.78;;;11.41;92.42
35908;BME280;22003;50.320;8.054;2023-03-09T09:57:19;97841.63;;;11.24;98.86
35908;BME280;22003;50.320;8.054;2023-03-09T09:59:39;97850.50;;;11.48;99.28
35908;BME280;22003;50.320;8.054;2023-03-09T10:04:37;97859.22;;;11.64;97.92
35908;BME280;22003;50.320;8.054;2023-03-09T10:07:15;97847.84;;;11.87;96.49
35908;BME280;22003;50.320;8.054;2023-03-09T10:09:43;97847.53;;;11.90;94.47
35908;BME280;22003;50.320;8.054;2023-03-09T10:12:14;97852.63;;;12.23;94.26
35908;BME280;22003;50.320;8.054;2023-03-09T10:14:47;97844.41;;;12.09;92.90
35908;BME280;22003;50.320;8.054;2023-03-09T10:17:28;97859.09;;;12.20;93.01
35908;BME280;22003;50.320;8.054;2023-03-09T10:20:01;97850.72;;;12.08;92.14
35908;BME280;22003;50.320;8.054;2023-03-09T10:22:27;97799.91;;;11.57;91.33
35908;BME280;22003;50.320;8.054;2023-03-09T10:24:55;97865.22;;;11.58;92.36
35908;BME280;22003;50.320;8.054;2023-03-09T10:27:31;97872.19;;;11.51;93.79
35908;BME280;22003;50.320;8.054;2023-03-09T10:30:25;97879.56;;;11.25;96.12
35908;BME280;22003;50.320;8.054;2023-03-09T10:33:15;97882.44;;;10.91;97.40
35908;BME280;22003;50.320;8.054;2023-03-09T10:38:18;97892.53;;;10.87;100.00
35908;BME280;22003;50.320;8.054;2023-03-09T10:40:47;97896.53;;;10.83;100.00
35908;BME280;22003;50.320;8.054;2023-03-09T10:45:42;97900.50;;;10.79;100.00
35908;BME280;22003;50.320;8.054;2023-03-09T10:48:18;97897.47;;;11.15;100.00
35908;BME280;22003;50.320;8.054;2023-03-09T10:51:01;97905.41;;;11.31;100.00
35908;BME280;22003;50.320;8.054;2023-03-09T10:53:39;97913.31;;;11.55;100.00
35908;BME280;22003;50.320;8.054;2023-03-09T10:56:22;97902.38;;;11.42;98.08
35908;BME280;22003;50.320;8.054;2023-03-09T11:01:34;97905.00;;;11.58;98.90
35908;BME280;22003;50.320;8.054;2023-03-09T11:04:00;97876.13;;;11.63;98.61
35908;BME280;22003;50.320;8.054;2023-03-09T11:06:34;97918.09;;;12.07;99.56
35908;BME280;22003;50.320;8.054;2023-03-09T11:09:14;97896.25;;;11.97;96.63
35908;BME280;22003;50.320;8.054;2023-03-09T11:11:45;97866.53;;;11.54;94.97
35908;BME280;22003;50.320;8.054;2023-03-09T11:14:22;97926.97;;;11.75;95.96
35908;BME280;22003;50.320;8.054;2023-03-09T11:16:50;97927.06;;;11.51;97.72
35908;BME280;22003;50.320;8.054;2023-03-09T11:19:17;97928.47;;;11.78;98.22
35908;BME280;22003;50.320;8.054;2023-03-09T11:21:52;97909.91;;;11.70;95.20
35908;BME280;22003;50.320;8.054;2023-03-09T11:24:27;97921.16;;;12.27;92.95
35908;BME280;22003;50.320;8.054;2023-03-09T11:26:59;97930.31;;;12.71;92.69
35908;BME280;22003;50.320;8.054;2023-03-09T11:29:59;97933.19;;;13.07;90.43
35908;BME280;22003;50.320;8.054;2023-03-09T11:32:26;97937.22;;;12.80;89.51
35908;BME280;22003;50.320;8.054;2023-03-09T11:34:52;97930.78;;;12.74;90.22
35908;BME280;22003;50.320;8.054;2023-03-09T11:37:41;97919.88;;;13.30;89.42
35908;BME280;22003;50.320;8.054;2023-03-09T11:40:16;97929.47;;;12.93;88.19
35908;BME280;22003;50.320;8.054;2023-03-09T11:42:46;97933.44;;;12.20;89.20
35908;BME280;22003;50.320;8.054;2023-03-09T11:45:16;97874.00;;;11.98;90.80
35908;BME280;22003;50.320;8.054;2023-03-09T11:47:49;97900.97;;;12.10;90.10
35908;BME280;22003;50.320;8.054;2023-03-09T11:50:45;97895.09;;;12.91;89.55
35908;BME280;22003;50.320;8.054;2023-03-09T11:53:17;97935.03;;;13.59;86.56
35908;BME280;22003;50.320;8.054;2023-03-09T11:55:46;97923.84;;;13.63;85.44
35908;BME280;22003;50.320;8.054;2023-03-09T11:58:16;97922.44;;;13.38;84.57
35908;BME280;22003;50.320;8.054;2023-03-09T12:00:47;97927.75;;;13.38;84.11
35908;BME280;22003;50.320;8.054;2023-03-09T12:03:15;97916.72;;;12.88;85.14
35908;BME280;22003;50.320;8.054;2023-03-09T12:05:50;97899.50;;;12.61;86.61
35908;BME280;22003;50.320;8.054;2023-03-09T12:08:20;97907.56;;;12.91;85.86
35908;BME280;22003;50.320;8.054;2023-03-09T12:13:28;97892.44;;;13.59;82.38
35908;BME280;22003;50.320;8.054;2023-03-09T12:16:05;97921.25;;;13.70;81.00
35908;BME280;22003;50.320;8.054;2023-03-09T12:21:27;97883.28;;;13.46;79.32
35908;BME280;22003;50.320;8.054;2023-03-09T12:23:54;97904.97;;;13.20;81.34
35908;BME280;22003;50.320;8.054;2023-03-09T12:26:30;97905.00;;;13.35;80.18
35908;BME280;22003;50.320;8.054;2023-03-09T12:29:20;97921.59;;;13.23;80.98
35908;BME280;22003;50.320;8.054;2023-03-09T12:32:14;97924.03;;;12.86;81.14
35908;BME280;22003;50.320;8.054;2023-03-09T12:34:42;97947.91;;;12.94;82.74
35908;BME280;22003;50.320;8.054;2023-03-09T12:42:50;97871.66;;;12.03;85.80
35908;BME280;22003;50.320;8.054;2023-03-09T12:47:44;97930.06;;;12.80;84.52
35908;BME280;22003;50.320;8.054;2023-03-09T12:52:57;97911.06;;;13.59;81.10
35908;BME280;22003;50.320;8.054;2023-03-09T13:03:23;97906.22;;;14.86;76.20
35908;BME280;22003;50.320;8.054;2023-03-09T13:05:53;97911.47;;;15.28;75.60
35908;BME280;22003;50.320;8.054;2023-03-09T13:08:25;97913.44;;;15.76;73.25
35908;BME280;22003;50.320;8.054;2023-03-09T13:10:51;97925.06;;;15.96;73.76
35908;BME280;22003;50.320;8.054;2023-03-09T13:27:04;97920.97;;;15.10;74.01
35908;BME280;22003;50.320;8.054;2023-03-09T13:29:30;97910.13;;;15.11;74.15
35908;BME280;22003;50.320;8.054;2023-03-09T13:31:57;97911.06;;;15.31;72.37
35908;BME280;22003;50.320;8.054;2023-03-09T13:34:25;97905.34;;;14.78;73.28
35908;BME280;22003;50.320;8.054;2023-03-09T13:36:54;97870.66;;;14.36;74.95
35908;BME280;22003;50.320;8.054;2023-03-09T13:39:23;97886.06;;;14.04;76.04
35908;BME280;22003;50.320;8.054;2023-03-09T13:41:50;97843.19;;;13.48;76.79
35908;BME280;22003;50.320;8.054;2023-03-09T13:44:21;97918.41;;;13.86;76.95
35908;BME280;22003;50.320;8.054;2023-03-09T13:46:48;97861.06;;;13.84;78.20
35908;BME280;22003;50.320;8.054;2023-03-09T13:49:28;97883.88;;;13.93;76.21
35908;BME280;22003;50.320;8.054;2023-03-09T13:51:55;97899.41;;;13.74;76.00
35908;BME280;22003;50.320;8.054;2023-03-09T13:57:18;97928.84;;;13.29;81.89
35908;BME280;22003;50.320;8.054;2023-03-09T14:00:15;97937.97;;;13.11;82.88
35908;BME280;22003;50.320;8.054;2023-03-09T14:02:41;97927.22;;;13.05;85.43
35908;BME280;22003;50.320;8.054;2023-03-09T14:05:18;97930.78;;;12.74;86.22
35908;BME280;22003;50.320;8.054;2023-03-09T14:10:22;97914.22;;;12.87;86.17
35908;BME280;22003;50.320;8.054;2023-03-09T14:12:54;97935.94;;;13.13;86.24
35908;BME280;22003;50.320;8.054;2023-03-09T14:15:21;97934.25;;;12.98;85.33
35908;BME280;22003;50.320;8.054;2023-03-09T14:17:48;97915.53;;;12.91;85.40
35908;BME280;22003;50.320;8.054;2023-03-09T14:20:20;97924.00;;;13.09;86.50
35908;BME280;22003;50.320;8.054;2023-03-09T14:22:46;97920.72;;;13.07;85.06
35908;BME280;22003;50.320;8.054;2023-03-09T14:27:49;97903.38;;;12.74;85.40
35908;BME280;22003;50.320;8.054;2023-03-09T14:32:59;97906.22;;;12.49;86.03
35908;BME280;22003;50.320;8.054;2023-03-09T14:35:33;97918.41;;;12.66;86.27
35908;BME280;22003;50.320;8.054;2023-03-09T14:38:00;97913.19;;;12.50;85.23
35908;BME280;22003;50.320;8.054;2023-03-09T14:40:28;97898.50;;;12.39;84.33
35908;BME280;22003;50.320;8.054;2023-03-09T14:43:27;97901.88;;;12.25;85.64
35908;BME280;22003;50.320;8.054;2023-03-09T14:46:25;97917.09;;;12.08;88.03
35908;BME280;22003;50.320;8.054;2023-03-09T14:48:56;97896.66;;;12.09;86.60
35908;BME280;22003;50.320;8.054;2023-03-09T14:51:27;97913.84;;;12.21;86.26
35908;BME280;22003;50.320;8.054;2023-03-09T14:54:01;97912.94;;;12.37;85.50
35908;BME280;22003;50.320;8.054;2023-03-09T14:56:30;97894.28;;;12.22;85.40
35908;BME280;22003;50.320;8.054;2023-03-09T14:58:57;97913.47;;;12.32;85.38
35908;BME280;22003;50.320;8.054;2023-03-09T15:01:27;97909.09;;;12.17;85.06
35908;BME280;22003;50.320;8.054;2023-03-09T15:03:53;97905.47;;;12.09;85.42
35908;BME280;22003;50.320;8.054;2023-03-09T15:06:18;97904.03;;;11.99;85.50
35908;BME280;22003;50.320;8.054;2023-03-09T15:08:43;97909.41;;;12.22;84.53
35908;BME280;22003;50.320;8.054;2023-03-09T15:11:09;97902.19;;;12.30;83.85
35908;BME280;22003;50.320;8.054;2023-03-09T15:13:34;97889.72;;;12.39;83.60
35908;BME280;22003;50.320;8.054;2023-03-09T15:16:01;97889.59;;;12.55;81.97
35908;BME280;22003;50.320;8.054;2023-03-09T15:18:27;97889.94;;;12.52;82.82
35908;BME280;22003;50.320;8.054;2023-03-09T15:20:52;97873.50;;;12.49;82.22
35908;BME280;22003;50.320;8.054;2023-03-09T15:23:18;97891.56;;;12.53;82.95
35908;BME280;22003;50.320;8.054;2023-03-09T15:25:43;97882.97;;;12.51;82.79
35908;BME280;22003;50.320;8.054;2023-03-09T15:28:09;97885.41;;;12.61;82.00
35908;BME280;22003;50.320;8.054;2023-03-09T15:30:35;97901.16;;;12.62;82.45
35908;BME280;22003;50.320;8.054;2023-03-09T15:33:01;97877.88;;;12.64;81.65
35908;BME280;22003;50.320;8.054;2023-03-09T15:35:26;97873.88;;;12.68;81.37
35908;BME280;22003;50.320;8.054;2023-03-09T15:37:51;97894.16;;;12.84;80.58
35908;BME280;22003;50.320;8.054;2023-03-09T15:40:17;97866.47;;;12.79;80.82
35908;BME280;22003;50.320;8.054;2023-03-09T15:42:43;97873.44;;;12.80;80.07
35908;BME280;22003;50.320;8.054;2023-03-09T15:45:11;97880.63;;;12.94;80.50
35908;BME280;22003;50.320;8.054;2023-03-09T15:47:36;97890.69;;;12.84;80.67
35908;BME280;22003;50.320;8.054;2023-03-09T15:50:03;97891.34;;;12.63;80.54
35908;BME280;22003;50.320;8.054;2023-03-09T15:52:28;97877.38;;;12.46;81.81
35908;BME280;22003;50.320;8.054;2023-03-09T15:54:54;97867.25;;;12.41;81.23
35908;BME280;22003;50.320;8.054;2023-03-09T15:57:19;97875.34;;;12.48;81.75
35908;BME280;22003;50.320;8.054;2023-03-09T15:59:44;97870.44;;;12.37;81.49
35908;BME280;22003;50.320;8.054;2023-03-09T16:02:10;97871.94;;;12.39;82.40
35908;BME280;22003;50.320;8.054;2023-03-09T16:04:36;97858.19;;;12.36;81.86
35908;BME280;22003;50.320;8.054;2023-03-09T16:07:01;97867.22;;;12.50;81.34
35908;BME280;22003;50.320;8.054;2023-03-09T16:09:27;97846.50;;;12.22;82.40
35908;BME280;22003;50.320;8.054;2023-03-09T16:11:52;97840.94;;;12.32;81.25
35908;BME280;22003;50.320;8.054;2023-03-09T16:14:18;97834.81;;;12.08;82.50
35908;BME280;22003;50.320;8.054;2023-03-09T16:16:44;97845.94;;;12.27;82.21
35908;BME280;22003;50.320;8.054;2023-03-09T16:19:09;97849.06;;;12.07;83.11
35908;BME280;22003;50.320;8.054;2023-03-09T16:21:34;97870.00;;;12.33;82.18
35908;BME280;22003;50.320;8.054;2023-03-09T16:24:00;97860.91;;;12.28;81.55
35908;BME280;22003;50.320;8.054;2023-03-09T16:26:25;97844.47;;;12.01;81.69
35908;BME280;22003;50.320;8.054;2023-03-09T16:28:50;97867.41;;;11.94;82.81
35908;BME280;22003;50.320;8.054;2023-03-09T16:31:18;97864.44;;;11.89;83.16
35908;BME280;22003;50.320;8.054;2023-03-09T16:33:44;97858.75;;;12.00;82.57
35908;BME280;22003;50.320;8.054;2023-03-09T16:36:09;97869.06;;;11.95;82.59
35908;BME280;22003;50.320;8.054;2023-03-09T16:38:34;97869.94;;;11.79;83.38
35908;BME280;22003;50.320;8.054;2023-03-09T16:41:05;97862.53;;;11.67;85.21
35908;BME280;22003;50.320;8.054;2023-03-09T16:43:30;97877.13;;;11.62;86.57
35908;BME280;22003;50.320;8.054;2023-03-09T16:45:57;97879.47;;;11.57;87.30
35908;BME280;22003;50.320;8.054;2023-03-09T16:48:24;97869.81;;;11.64;87.62
35908;BME280;22003;50.320;8.054;2023-03-09T16:50:56;97889.13;;;11.50;88.61
35908;BME280;22003;50.320;8.054;2023-03-09T16:53:22;97894.06;;;11.53;89.48
35908;BME280;22003;50.320;8.054;2023-03-09T16:55:55;97885.66;;;11.42;89.41
35908;BME280;22003;50.320;8.054;2023-03-09T16:58:21;97872.31;;;11.10;90.82
35908;BME280;22003;50.320;8.054;2023-03-09T17:00:46;97877.28;;;10.97;92.37
35908;BME280;22003;50.320;8.054;2023-03-09T17:03:11;97852.47;;;10.90;92.88
35908;BME280;22003;50.320;8.054;2023-03-09T17:05:40;97857.59;;;10.92;92.19
35908;BME280;22003;50.320;8.054;2023-03-09T17:08:05;97869.66;;;11.02;91.62
35908;BME280;22003;50.320;8.054;2023-03-09T17:10:31;97844.53;;;10.90;92.06
35908;BME280;22003;50.320;8.054;2023-03-09T17:12:56;97838.25;;;10.75;91.89
35908;BME280;22003;50.320;8.054;2023-03-09T17:15:21;97860.25;;;10.75;92.52
35908;BME280;22003;50.320;8.054;2023-03-09T17:17:47;97852.81;;;10.54;92.50
35908;BME280;22003;50.320;8.054;2023-03-09T17:20:13;97830.31;;;10.42;92.85
35908;BME280;22003;50.320;8.054;2023-03-09T17:22:39;97836.75;;;10.31;93.92
35908;BME280;22003;50.320;8.054;2023-03-09T17:25:04;97796.84;;;10.09;93.74
35908;BME280;22003;50.320;8.054;2023-03-09T17:27:30;97854.97;;;10.35;93.19
35908;BME280;22003;50.320;8.054;2023-03-09T17:29:57;97838.50;;;9.98;95.16
35908;BME280;22003;50.320;8.054;2023-03-09T17:32:23;97836.19;;;10.03;95.79
35908;BME280;22003;50.320;8.054;2023-03-09T17:34:48;97842.66;;;10.01;95.80
35908;BME280;22003;50.320;8.054;2023-03-09T17:37:13;97839.84;;;9.94;96.50
35908;BME280;22003;50.320;8.054;2023-03-09T17:39:38;97846.25;;;9.84;97.15
35908;BME280;22003;50.320;8.054;2023-03-09T17:42:04;97827.84;;;9.66;97.92
35908;BME280;22003;50.320;8.054;2023-03-09T17:44:29;97840.75;;;9.77;98.00
35908;BME280;22003;50.320;8.054;2023-03-09T17:46:54;97841.94;;;9.74;97.96
35908;BME280;22003;50.320;8.054;2023-03-09T17:49:19;97828.47;;;9.51;98.24
35908;BME280;22003;50.320;8.054;2023-03-09T17:51:45;97825.66;;;9.53;98.58
35908;BME280;22003;50.320;8.054;2023-03-09T17:54:10;97808.38;;;9.24;98.91
35908;BME280;22003;50.320;8.054;2023-03-09T17:56:35;97824.09;;;9.34;99.10
35908;BME280;22003;50.320;8.054;2023-03-09T17:59:00;97827.69;;;9.25;99.74
35908;BME280;22003;50.320;8.054;2023-03-09T18:01:28;97837.13;;;9.28;100.00
35908;BME280;22003;50.320;8.054;2023-03-09T18:03:56;97836.97;;;9.29;100.00
35908;BME280;22003;50.320;8.054;2023-03-09T18:06:23;97833.34;;;9.30;100.00
35908;BME280;22003;50.320;8.054;2023-03-09T18:08:50;97829.88;;;9.38;100.00
35908;BME280;22003;50.320;8.054;2023-03-09T18:11:19;97833.56;;;9.45;100.00
35908;BME280;22003;50.320;8.054;2023-03-09T18:13:45;97817.03;;;9.43;99.83
35908;BME280;22003;50.320;8.054;2023-03-09T18:16:12;97796.16;;;9.32;99.66
35908;BME280;22003;50.320;8.054;2023-03-09T18:18:38;97809.78;;;9.45;99.68
35908;BME280;22003;50.320;8.054;2023-03-09T18:21:03;97792.22;;;9.28;99.27
35908;BME280;22003;50.320;8.054;2023-03-09T18:23:30;97815.91;;;9.45;99.21
35908;BME280;22003;50.320;8.054;2023-03-09T18:25:55;97792.81;;;9.64;99.01
35908;BME280;22003;50.320;8.054;2023-03-09T18:28:21;97797.06;;;9.48;98.23
35908;BME280;22003;50.320;8.054;2023-03-09T18:30:47;97801.88;;;9.53;98.05
35908;BME280;22003;50.320;8.054;2023-03-09T18:33:13;97798.91;;;9.56;97.60
35908;BME280;22003;50.320;8.054;2023-03-09T18:35:38;97795.78;;;9.61;97.67
35908;BME280;22003;50.320;8.054;2023-03-09T18:38:09;97798.13;;;9.72;96.32
35908;BME280;22003;50.320;8.054;2023-03-09T18:40:34;97779.94;;;9.77;94.98
35908;BME280;22003;50.320;8.054;2023-03-09T18:42:59;97790.03;;;9.82;95.20
35908;BME280;22003;50.320;8.054;2023-03-09T18:45:25;97777.28;;;9.77;95.07
35908;BME280;22003;50.320;8.054;2023-03-09T18:47:50;97776.13;;;9.71;95.30
35908;BME280;22003;50.320;8.054;2023-03-09T18:50:15;97785.22;;;9.77;95.65
35908;BME280;22003;50.320;8.054;2023-03-09T18:52:40;97774.97;;;9.66;96.44
35908;BME280;22003;50.320;8.054;2023-03-09T18:55:06;97765.72;;;9.62;96.33
35908;BME280;22003;50.320;8.054;2023-03-09T18:57:32;97771.50;;;9.65;96.39
35908;BME280;22003;50.320;8.054;2023-03-09T18:59:57;97750.16;;;9.59;96.35
35908;BME280;22003;50.320;8.054;2023-03-09T19:02:22;97751.69;;;9.61;96.71
35908;BME280;22003;50.320;8.054;2023-03-09T19:04:47;97770.00;;;9.63;96.28
35908;BME280;22003;50.320;8.054;2023-03-09T19:07:13;97738.41;;;9.53;96.53
35908;BME280;22003;50.320;8.054;2023-03-09T19:09:39;97743.72;;;9.53;96.44